Time;durP1;ratioP1;P1;durP2;ratioP2;P2;SDS_P1;SDS_P2;PMS_P1;PMS_P2;Temp;Humidity;BMP_temperature;BMP_pressure;BME280_temperature;BME280_humidity;BME280_pressure;Samples;Min_cycle;Max_cycle;Signal;HPM_P1;HPM_P2
2022/05/03 00:01:03;;;;;;;5.70;5.30;;;11.10;99.90;;;;;;6330513;28;20473;-65
2022/05/03 00:04:10;;;;;;;5.93;5.47;;;11.10;99.90;;;;;;6331221;28;21028;-65
2022/05/03 00:07:21;;;;;;;5.60;5.10;;;11.00;99.90;;;;;;6331867;28;20832;-65
2022/05/03 00:10:52;;;;;;;5.60;5.20;;;11.00;99.90;;;;;;6334527;28;20494;-65
2022/05/03 00:14:04;;;;;;;5.97;5.37;;;11.10;99.90;;;;;;6330245;28;20460;-65
2022/05/03 00:17:08;;;;;;;5.60;5.10;;;11.00;99.90;;;;;;6329788;28;20779;-65
2022/05/03 00:20:12;;;;;;;5.07;4.77;;;11.00;99.90;;;;;;6330129;28;20468;-65
2022/05/03 00:23:16;;;;;;;6.10;5.60;;;11.00;99.90;;;;;;6329084;28;20472;-65
2022/05/03 00:26:21;;;;;;;5.73;5.23;;;10.80;99.90;;;;;;6329447;28;20480;-65
2022/05/03 00:29:24;;;;;;;5.53;4.93;;;10.80;99.90;;;;;;6325281;28;20492;-65
2022/05/03 00:32:29;;;;;;;5.37;4.87;;;10.70;99.90;;;;;;6328770;28;20484;-65
2022/05/03 00:35:32;;;;;;;5.43;4.90;;;10.70;99.90;;;;;;6329094;28;20476;-65
2022/05/03 00:38:36;;;;;;;5.80;5.30;;;10.70;99.90;;;;;;6328369;28;20929;-65
2022/05/03 00:41:46;;;;;;;5.40;4.90;;;10.70;99.90;;;;;;6327745;28;20989;-65
2022/05/03 00:45:02;;;;;;;5.40;4.90;;;10.70;99.90;;;;;;6328548;28;20964;-65
2022/05/03 00:48:28;;;;;;;5.73;5.10;;;10.70;99.90;;;;;;6328201;27;20826;-65
2022/05/03 00:51:41;;;;;;;7.73;5.40;;;10.60;99.90;;;;;;6327943;28;20476;-66
2022/05/03 00:54:55;;;;;;;6.07;5.30;;;10.50;99.90;;;;;;6335531;28;20467;-65
2022/05/03 00:58:25;;;;;;;5.77;5.27;;;10.50;99.90;;;;;;6341682;28;20483;-66
2022/05/03 01:01:38;;;;;;;5.80;5.20;;;10.50;99.90;;;;;;6336685;28;20464;-66
2022/05/03 01:04:53;;;;;;;6.23;5.77;;;10.50;99.90;;;;;;6334726;28;20472;-65
2022/05/03 01:08:04;;;;;;;5.93;5.33;;;10.40;99.90;;;;;;6334163;28;20467;-65
2022/05/03 01:11:25;;;;;;;6.10;5.60;;;10.50;99.90;;;;;;6331275;28;20984;-66
2022/05/03 01:14:43;;;;;;;6.13;5.63;;;10.40;99.90;;;;;;6330205;28;20491;-65
2022/05/03 01:17:54;;;;;;;6.00;4.63;;;10.40;99.90;;;;;;6331152;28;21217;-64
2022/05/03 01:21:06;;;;;;;5.37;4.87;;;10.30;99.90;;;;;;6332845;28;20771;-62
2022/05/03 01:24:29;;;;;;;5.47;4.97;;;10.30;99.90;;;;;;6308047;28;20487;-62
2022/05/03 01:28:03;;;;;;;6.10;5.10;;;10.30;99.90;;;;;;6325753;28;20460;-62
2022/05/03 01:31:11;;;;;;;4.60;4.20;;;10.20;99.90;;;;;;6325260;28;20469;-62
2022/05/03 01:34:20;;;;;;;4.90;4.50;;;10.20;99.90;;;;;;6317186;28;20475;-62
2022/05/03 01:37:53;;;;;;;6.23;5.03;;;10.20;99.90;;;;;;6327079;28;20472;-65
2022/05/03 01:41:12;;;;;;;5.43;4.93;;;10.10;99.90;;;;;;6301468;28;20472;-65
2022/05/03 01:44:28;;;;;;;5.10;4.70;;;10.00;99.90;;;;;;6326807;28;20465;-66
2022/05/03 01:47:44;;;;;;;4.90;4.50;;;10.00;99.90;;;;;;6327173;28;20464;-63
2022/05/03 01:50:57;;;;;;;11.20;5.30;;;10.00;99.90;;;;;;6316038;28;20476;-63
2022/05/03 01:54:13;;;;;;;4.80;4.50;;;10.00;99.90;;;;;;6297184;28;20474;-62
2022/05/03 01:57:27;;;;;;;5.60;5.20;;;10.00;99.90;;;;;;6300938;28;20430;-64
2022/05/03 02:00:35;;;;;;;5.63;5.13;;;9.90;99.90;;;;;;6300886;28;20480;-66
2022/05/03 02:03:49;;;;;;;6.70;5.67;;;9.80;99.90;;;;;;6300464;28;20480;-65
2022/05/03 02:07:04;;;;;;;5.30;4.90;;;9.80;99.90;;;;;;6301606;28;20568;-65
2022/05/03 02:10:14;;;;;;;6.43;4.70;;;9.90;99.90;;;;;;6301850;28;20477;-65
2022/05/03 02:17:51;;;;;;;5.43;4.93;;;9.80;99.90;;;;;;6298162;28;20470;-63
2022/05/03 02:21:14;;;;;;;5.33;5.00;;;9.70;99.90;;;;;;6273452;28;20574;-63
2022/05/03 02:24:27;;;;;;;6.23;5.60;;;9.60;99.90;;;;;;6302232;28;20453;-63
2022/05/03 02:27:33;;;;;;;7.00;5.20;;;9.50;99.90;;;;;;6327082;28;20464;-63
2022/05/03 02:30:38;;;;;;;5.77;4.93;;;9.50;99.90;;;;;;6324938;28;20460;-63
2022/05/03 02:33:48;;;;;;;8.57;4.93;;;9.50;99.90;;;;;;6324746;28;20468;-66
2022/05/03 02:36:59;;;;;;;5.70;5.20;;;9.40;99.90;;;;;;6319139;28;20479;-63
2022/05/03 02:40:07;;;;;;;5.20;4.70;;;9.40;99.90;;;;;;6323828;28;20944;-63
2022/05/03 02:43:13;;;;;;;5.60;5.10;;;9.40;99.90;;;;;;6323711;28;20555;-66
2022/05/03 02:46:41;;;;;;;5.33;4.87;;;9.50;99.90;;;;;;6325615;28;20469;-65
2022/05/03 02:50:00;;;;;;;5.83;5.23;;;9.50;99.90;;;;;;6326473;28;20549;-65
2022/05/03 02:53:08;;;;;;;5.43;4.93;;;9.50;99.90;;;;;;6325945;28;20816;-65
2022/05/03 02:56:22;;;;;;;5.20;4.80;;;9.50;99.90;;;;;;6325859;28;20477;-65
2022/05/03 03:03:03;;;;;;;5.50;5.00;;;9.40;99.90;;;;;;6330073;28;20473;-65
2022/05/03 03:06:13;;;;;;;6.53;5.93;;;9.40;99.90;;;;;;6324625;28;20453;-65
2022/05/03 03:09:26;;;;;;;7.30;5.30;;;9.30;99.90;;;;;;6326554;28;20800;-64
2022/05/03 03:12:39;;;;;;;6.00;5.50;;;9.50;99.90;;;;;;6325231;28;20468;-64
2022/05/03 03:15:42;;;;;;;5.50;5.00;;;9.40;99.90;;;;;;6325705;28;20936;-64
2022/05/03 03:18:48;;;;;;;5.80;5.00;;;9.40;99.90;;;;;;6324762;28;20469;-62
2022/05/03 03:21:56;;;;;;;5.00;4.60;;;9.40;99.90;;;;;;6323583;28;20480;-62
2022/05/03 03:25:03;;;;;;;6.77;5.30;;;9.40;99.90;;;;;;6324016;28;20480;-62
2022/05/03 03:28:13;;;;;;;5.87;4.70;;;9.40;99.90;;;;;;6324779;28;20963;-62
2022/05/03 03:31:19;;;;;;;5.80;4.10;;;9.40;99.90;;;;;;6324340;28;20487;-62
2022/05/03 03:34:25;;;;;;;5.87;5.27;;;9.30;99.90;;;;;;6326864;28;20559;-62
2022/05/03 03:37:29;;;;;;;5.10;4.57;;;9.30;99.90;;;;;;6328815;28;20464;-63
2022/05/03 03:40:34;;;;;;;4.50;4.17;;;9.30;99.90;;;;;;6329075;28;20495;-62
2022/05/03 03:43:38;;;;;;;5.00;4.50;;;9.30;99.90;;;;;;6329018;28;20482;-65
2022/05/03 03:46:41;;;;;;;4.97;4.57;;;9.30;99.90;;;;;;6329610;28;20464;-65
2022/05/03 03:49:45;;;;;;;6.07;4.87;;;9.30;99.90;;;;;;6329376;28;20771;-65
2022/05/03 03:52:49;;;;;;;5.07;4.50;;;9.30;99.90;;;;;;6329782;28;20464;-66
2022/05/03 03:55:54;;;;;;;5.40;4.90;;;9.20;99.90;;;;;;6329418;28;20468;-65
2022/05/03 03:58:57;;;;;;;5.03;4.53;;;9.30;99.90;;;;;;6329264;28;20809;-62
2022/05/03 04:02:01;;;;;;;6.70;4.97;;;9.30;99.90;;;;;;6328853;28;20555;-62
2022/05/03 04:05:06;;;;;;;5.10;4.50;;;9.30;99.90;;;;;;6328329;28;20472;-66
2022/05/03 04:08:09;;;;;;;5.70;5.10;;;9.20;99.90;;;;;;6329970;28;20472;-66
2022/05/03 04:11:18;;;;;;;6.23;5.20;;;9.30;99.90;;;;;;6328595;28;20472;-66
2022/05/03 04:14:21;;;;;;;6.20;4.97;;;9.30;99.90;;;;;;6328503;28;20546;-66
2022/05/03 04:17:25;;;;;;;5.50;5.00;;;9.40;99.90;;;;;;6327940;28;20798;-62
2022/05/03 04:20:28;;;;;;;4.83;4.37;;;9.40;99.90;;;;;;6328467;28;20480;-63
2022/05/03 04:23:31;;;;;;;5.07;4.67;;;9.40;99.90;;;;;;6328125;28;20480;-63
2022/05/03 04:26:36;;;;;;;7.00;6.30;;;9.50;99.90;;;;;;6329182;28;20825;-62
2022/05/03 04:29:40;;;;;;;4.20;3.83;;;9.40;99.90;;;;;;6327690;28;20475;-64
2022/05/03 04:32:43;;;;;;;7.03;4.57;;;9.40;99.90;;;;;;6328922;28;20479;-65
2022/05/03 04:35:46;;;;;;;5.20;4.80;;;9.40;99.90;;;;;;6329624;28;20577;-67
2022/05/03 04:38:50;;;;;;;6.60;4.80;;;9.40;99.90;;;;;;6330910;28;20472;-67
2022/05/03 04:41:54;;;;;;;5.23;4.63;;;9.50;99.90;;;;;;6327847;28;20468;-63
2022/05/03 04:44:57;;;;;;;6.13;4.13;;;9.70;99.90;;;;;;6326752;28;20480;-63
2022/05/03 04:48:00;;;;;;;5.50;5.00;;;9.90;99.90;;;;;;6318211;28;20468;-64
2022/05/03 04:51:04;;;;;;;6.23;5.00;;;10.00;99.90;;;;;;6327023;28;20468;-64
2022/05/03 04:54:07;;;;;;;6.03;5.23;;;10.20;99.90;;;;;;6327009;28;20464;-66
2022/05/03 04:57:12;;;;;;;7.30;5.10;;;10.30;99.90;;;;;;6327135;28;20749;-67
2022/05/03 05:00:16;;;;;;;6.63;4.80;;;10.50;99.90;;;;;;6328278;28;20436;-67
2022/05/03 05:03:19;;;;;;;6.90;6.30;;;10.60;99.90;;;;;;6328850;28;20971;-65
2022/05/03 05:06:22;;;;;;;7.87;5.83;;;10.70;99.90;;;;;;6328920;28;20437;-65
2022/05/03 05:09:25;;;;;;;6.77;5.87;;;10.90;99.90;;;;;;6327430;28;20468;-66
2022/05/03 05:12:31;;;;;;;6.80;5.63;;;11.10;99.90;;;;;;6327277;28;20487;-64
2022/05/03 05:15:34;;;;;;;5.90;5.33;;;11.30;99.90;;;;;;6327340;28;20469;-66
2022/05/03 05:18:37;;;;;;;8.53;6.80;;;11.60;99.90;;;;;;6328689;28;20802;-66
2022/05/03 05:21:40;;;;;;;9.90;6.33;;;11.80;99.90;;;;;;6328507;28;20955;-65
2022/05/03 05:24:43;;;;;;;6.60;5.90;;;12.00;99.90;;;;;;6328333;28;20469;-62
2022/05/03 05:27:48;;;;;;;6.90;6.17;;;12.20;99.90;;;;;;6327042;28;20481;-62
2022/05/03 05:30:52;;;;;;;7.00;6.37;;;12.50;99.90;;;;;;6327525;28;20464;-62
2022/05/03 05:33:55;;;;;;;7.13;6.43;;;12.70;99.90;;;;;;6327712;28;20496;-66
2022/05/03 05:36:59;;;;;;;9.53;6.13;;;13.10;99.90;;;;;;6327190;28;20510;-67
2022/05/03 05:40:02;;;;;;;8.23;5.70;;;13.50;99.90;;;;;;6327028;28;20465;-67
2022/05/03 05:43:06;;;;;;;7.83;6.80;;;14.00;99.90;;;;;;6326357;28;20476;-63
2022/05/03 05:46:10;;;;;;;8.50;6.10;;;14.40;99.90;;;;;;6326088;28;20841;-63
2022/05/03 05:49:13;;;;;;;6.10;5.50;;;15.10;99.90;;;;;;6321652;28;20475;-66
2022/05/03 05:55:37;;;;;;;6.93;5.00;;;16.20;98.70;;;;;;6326335;28;20473;-63
2022/05/03 05:58:42;;;;;;;6.87;6.27;;;16.80;97.70;;;;;;6324331;28;20469;-63
2022/05/03 06:01:45;;;;;;;8.77;6.20;;;17.50;95.90;;;;;;6325127;28;20479;-62
2022/05/03 06:04:49;;;;;;;5.87;5.37;;;18.00;94.70;;;;;;6325208;28;20465;-63
2022/05/03 06:07:57;;;;;;;5.60;5.17;;;18.30;93.40;;;;;;6325446;28;20545;-66
2022/05/03 06:11:01;;;;;;;6.90;6.20;;;18.50;92.20;;;;;;6330257;28;20476;-67
2022/05/03 06:14:05;;;;;;;5.97;5.37;;;18.80;91.70;;;;;;6326700;28;20364;-64
2022/05/03 06:17:08;;;;;;;6.10;5.50;;;19.30;91.00;;;;;;6326006;28;20572;-65
2022/05/03 06:20:12;;;;;;;6.23;5.70;;;20.00;89.40;;;;;;6325621;28;20230;-63
2022/05/03 06:23:15;;;;;;;6.47;5.67;;;20.20;85.20;;;;;;6324692;28;20229;-63
2022/05/03 06:26:19;;;;;;;6.50;5.90;;;20.40;83.00;;;;;;6333422;28;20225;-65
2022/05/03 06:29:24;;;;;;;8.90;7.40;;;20.80;82.00;;;;;;6332256;28;20226;-65
2022/05/03 06:32:27;;;;;;;5.57;4.97;;;21.40;80.00;;;;;;6331779;28;20549;-67
2022/05/03 06:35:30;;;;;;;6.00;5.40;;;22.00;78.00;;;;;;6327860;28;20253;-65
2022/05/03 06:38:34;;;;;;;5.80;5.20;;;22.60;74.90;;;;;;6325482;28;20222;-66
2022/05/03 06:41:37;;;;;;;5.60;5.20;;;23.20;72.30;;;;;;6325548;28;20697;-67
2022/05/03 06:44:41;;;;;;;6.60;5.63;;;23.80;68.80;;;;;;6325840;28;20234;-66
2022/05/03 06:47:44;;;;;;;5.70;5.20;;;24.30;65.80;;;;;;6325501;28;20219;-66
2022/05/03 06:50:48;;;;;;;8.23;5.60;;;24.70;63.00;;;;;;6318123;28;20651;-65
2022/05/03 06:53:56;;;;;;;5.70;4.97;;;25.20;60.30;;;;;;6296950;28;20670;-66
2022/05/03 06:56:59;;;;;;;6.93;5.60;;;25.90;57.60;;;;;;6287519;28;20234;-66
2022/05/03 07:00:05;;;;;;;5.40;5.00;;;26.50;56.20;;;;;;6298450;28;20241;-67
2022/05/03 07:03:08;;;;;;;6.23;4.97;;;26.90;53.70;;;;;;6288425;28;20535;-67
2022/05/03 07:06:12;;;;;;;5.57;5.10;;;27.50;52.80;;;;;;6289399;28;20209;-63
2022/05/03 07:09:15;;;;;;;5.03;4.63;;;28.50;50.50;;;;;;6313406;28;20232;-63
2022/05/03 07:12:19;;;;;;;5.93;4.77;;;29.20;47.60;;;;;;6316167;28;20516;-63
2022/05/03 07:15:24;;;;;;;6.20;4.60;;;30.00;46.30;;;;;;6316792;28;20227;-63
2022/05/03 07:25:09;;;;;;;5.13;4.73;;;29.50;42.50;;;;;;6315902;28;20461;-63
2022/05/03 07:28:12;;;;;;;5.30;4.70;;;30.10;41.80;;;;;;6318944;28;20222;-63
2022/05/03 07:31:17;;;;;;;4.40;4.00;;;30.70;40.70;;;;;;6317607;28;20264;-67
2022/05/03 07:34:20;;;;;;;4.88;4.50;;;31.40;38.90;;;;;;6314884;28;20232;-64
2022/05/03 07:37:24;;;;;;;5.03;4.63;;;32.20;37.70;;;;;;6323192;28;20229;-64
2022/05/03 07:40:28;;;;;;;4.93;4.53;;;33.30;36.00;;;;;;6326275;28;20229;-65
2022/05/03 07:43:32;;;;;;;4.13;3.83;;;34.30;34.70;;;;;;6316569;28;20222;-64
2022/05/03 07:46:36;;;;;;;3.83;3.55;;;35.30;33.60;;;;;;6316793;28;20568;-65
2022/05/03 07:49:39;;;;;;;4.13;3.83;;;36.10;31.30;;;;;;6319970;28;20224;-69
2022/05/03 07:52:42;;;;;;;4.75;4.35;;;36.80;30.30;;;;;;6331695;28;20225;-65
2022/05/03 07:55:46;;;;;;;4.57;4.18;;;37.60;28.40;;;;;;6328481;28;20217;-65
2022/05/03 07:58:49;;;;;;;6.18;3.97;;;38.20;27.20;;;;;;6321485;28;20240;-65
2022/05/03 08:01:54;;;;;;;4.78;4.20;;;38.40;27.10;;;;;;6313741;28;20527;-65
2022/05/03 08:04:58;;;;;;;5.68;3.80;;;37.90;26.50;;;;;;6313632;28;20230;-65
2022/05/03 08:08:01;;;;;;;4.00;3.70;;;37.90;26.20;;;;;;6304157;28;20680;-66
2022/05/03 08:11:05;;;;;;;3.83;3.47;;;37.90;26.00;;;;;;6325737;28;20239;-65
2022/05/03 08:14:08;;;;;;;4.10;3.70;;;38.20;25.70;;;;;;6328530;28;20226;-64
2022/05/03 08:17:12;;;;;;;3.92;3.35;;;38.20;24.70;;;;;;6327878;28;20221;-65
2022/05/03 08:20:16;;;;;;;4.93;3.80;;;38.50;24.60;;;;;;6327844;28;20578;-64
2022/05/03 08:23:19;;;;;;;5.05;3.33;;;38.50;23.80;;;;;;6328363;28;20244;-64
2022/05/03 08:26:22;;;;;;;5.57;3.15;;;39.30;24.00;;;;;;6330872;28;20225;-64
2022/05/03 08:29:27;;;;;;;4.20;3.80;;;40.20;22.80;;;;;;6330214;28;20229;-65
2022/05/03 08:32:31;;;;;;;5.30;3.53;;;40.90;22.30;;;;;;6330185;28;20230;-65
2022/05/03 08:35:34;;;;;;;3.75;3.38;;;41.70;22.40;;;;;;6328924;28;20560;-64
2022/05/03 08:42:07;;;;;;;5.00;4.05;;;41.70;21.70;;;;;;6327505;27;20210;-66
2022/05/03 08:45:10;;;;;;;3.40;3.08;;;40.90;21.60;;;;;;6327269;28;20490;-65
2022/05/03 08:48:16;;;;;;;4.00;3.60;;;39.90;22.00;;;;;;6327782;28;20654;-65
2022/05/03 08:51:22;;;;;;;4.45;4.05;;;38.60;22.40;;;;;;6327645;28;20291;-66
2022/05/03 08:54:25;;;;;;;3.38;3.00;;;37.30;22.80;;;;;;6327356;28;20226;-65
2022/05/03 08:57:29;;;;;;;4.18;3.78;;;35.70;24.00;;;;;;6327108;28;20236;-66
2022/05/03 09:00:33;;;;;;;6.60;3.60;;;34.30;25.80;;;;;;6317541;28;20236;-66
2022/05/03 09:03:39;;;;;;;3.65;3.00;;;33.10;26.70;;;;;;6326675;28;20709;-66
2022/05/03 09:06:46;;;;;;;3.50;3.20;;;32.10;27.60;;;;;;6319086;28;20222;-65
2022/05/03 09:09:51;;;;;;;6.65;3.40;;;30.40;28.50;;;;;;6314509;28;20221;-65
2022/05/03 09:13:14;;;;;;;3.90;3.60;;;29.40;30.70;;;;;;6315172;28;20248;-65
2022/05/03 09:16:20;;;;;;;3.20;2.90;;;29.10;30.80;;;;;;6306126;28;20226;-66
2022/05/03 09:19:26;;;;;;;4.03;3.63;;;28.70;31.60;;;;;;6303238;28;20231;-65
2022/05/03 09:25:50;;;;;;;4.20;3.03;;;27.80;32.50;;;;;;6314889;28;20218;-65
2022/05/03 09:28:55;;;;;;;3.77;3.47;;;27.40;33.00;;;;;;6305493;28;20230;-64
2022/05/03 09:31:58;;;;;;;5.20;4.80;;;27.20;33.80;;;;;;6300342;28;20236;-65
2022/05/03 09:35:03;;;;;;;6.30;4.30;;;26.70;35.50;;;;;;6304743;28;20231;-68
2022/05/03 09:38:06;;;;;;;4.97;4.50;;;26.50;36.50;;;;;;6303222;28;20238;-65
2022/05/03 09:41:14;;;;;;;4.03;3.63;;;26.30;36.70;;;;;;6301211;28;20309;-64
2022/05/03 09:44:18;;;;;;;3.80;3.50;;;25.80;34.60;;;;;;6301014;28;20263;-66
2022/05/03 09:47:22;;;;;;;5.00;3.20;;;25.70;35.00;;;;;;6300688;28;20231;-64
2022/05/03 09:50:28;;;;;;;2.73;2.53;;;25.50;32.90;;;;;;6300608;28;20689;-65
2022/05/03 09:53:32;;;;;;;3.60;3.20;;;25.50;31.90;;;;;;6312261;28;20225;-68
2022/05/03 09:56:38;;;;;;;6.87;3.60;;;25.30;31.70;;;;;;6326463;28;20597;-69
2022/05/03 09:59:48;;;;;;;4.70;4.30;;;25.20;34.40;;;;;;6326789;28;20292;-66
2022/05/03 10:02:54;;;;;;;4.87;3.70;;;25.20;36.50;;;;;;6324380;28;20292;-65
2022/05/03 10:05:59;;;;;;;5.07;4.53;;;24.90;34.70;;;;;;6314392;28;20861;-65
2022/05/03 10:09:03;;;;;;;4.63;3.73;;;25.00;36.60;;;;;;6324348;28;20841;-65
2022/05/03 10:12:09;;;;;;;3.90;3.60;;;25.10;36.20;;;;;;6325082;28;20217;-63
2022/05/03 10:20:35;;;;;;;4.20;3.77;;;24.80;34.10;;;;;;6325838;28;20187;-63
2022/05/03 10:22:05;;;;;;;3.33;3.03;;;24.70;33.20;;;;;;6325384;28;20646;-63
2022/05/03 10:25:09;;;;;;;4.43;3.10;;;24.30;33.70;;;;;;6325259;28;20232;-64
2022/05/03 10:28:13;;;;;;;4.20;3.70;;;24.40;33.80;;;;;;6324753;28;20226;-64
2022/05/03 10:31:16;;;;;;;7.30;3.97;;;24.40;33.60;;;;;;6322568;28;20218;-63
2022/05/03 10:34:41;;;;;;;2.80;2.53;;;24.60;33.70;;;;;;6324058;28;20244;-67
2022/05/03 10:38:05;;;;;;;2.97;2.67;;;24.80;31.70;;;;;;6323623;28;20244;-65
2022/05/03 10:41:09;;;;;;;3.63;3.33;;;24.80;32.70;;;;;;6323388;28;20724;-65
2022/05/03 10:44:40;;;;;;;4.00;3.10;;;24.90;32.90;;;;;;6322224;28;20233;-65
2022/05/03 10:47:48;;;;;;;3.70;3.40;;;24.90;32.20;;;;;;6324536;28;20232;-64
2022/05/03 10:50:54;;;;;;;3.33;3.03;;;24.60;33.90;;;;;;6324990;28;20570;-64
2022/05/03 10:54:00;;;;;;;4.90;3.23;;;24.20;34.10;;;;;;6324067;28;20230;-65
2022/05/03 10:57:07;;;;;;;3.27;2.97;;;24.40;33.30;;;;;;6324668;28;20230;-65
2022/05/03 11:00:11;;;;;;;3.50;3.20;;;24.60;32.60;;;;;;6323644;28;20202;-68
2022/05/03 11:03:19;;;;;;;4.60;3.80;;;24.80;32.80;;;;;;6324305;28;20553;-67
2022/05/03 11:06:39;;;;;;;4.37;3.23;;;24.70;32.50;;;;;;6319636;28;20199;-68
2022/05/03 11:09:44;;;;;;;5.43;4.03;;;24.90;32.80;;;;;;6324276;28;20234;-68
2022/05/03 11:12:50;;;;;;;4.10;3.70;;;24.90;34.20;;;;;;6324016;28;20567;-68
2022/05/03 11:16:23;;;;;;;3.03;2.73;;;24.80;33.40;;;;;;6324087;28;20218;-64
2022/05/03 11:19:27;;;;;;;3.50;3.20;;;24.80;33.50;;;;;;6303949;28;20238;-63
2022/05/03 11:22:32;;;;;;;3.50;3.13;;;24.90;32.90;;;;;;6297710;28;20231;-64
2022/05/03 11:25:40;;;;;;;4.13;3.40;;;25.00;33.00;;;;;;6298273;28;20230;-65
2022/05/03 11:28:46;;;;;;;3.67;2.50;;;25.10;33.30;;;;;;6299277;28;20234;-63
2022/05/03 11:31:52;;;;;;;3.10;2.80;;;25.20;33.70;;;;;;6298936;28;20284;-65
2022/05/03 11:35:04;;;;;;;3.57;2.90;;;25.40;33.20;;;;;;6299395;28;20362;-65
2022/05/03 11:38:12;;;;;;;4.10;2.80;;;25.30;32.60;;;;;;6298950;28;20235;-69
2022/05/03 11:41:38;;;;;;;2.90;2.60;;;25.10;30.30;;;;;;6299532;28;20231;-68
2022/05/03 11:44:44;;;;;;;3.17;2.90;;;24.60;31.20;;;;;;6299436;28;20227;-65
2022/05/03 11:47:50;;;;;;;3.07;2.87;;;24.70;32.50;;;;;;6317269;28;20242;-65
2022/05/03 11:57:46;;;;;;;3.47;2.30;;;24.90;32.40;;;;;;6312541;28;20234;-68
2022/05/03 12:00:51;;;;;;;3.30;3.00;;;25.10;30.90;;;;;;6302458;28;20219;-67
2022/05/03 12:03:58;;;;;;;2.73;2.00;;;25.20;30.80;;;;;;6301520;28;20229;-63
2022/05/03 12:07:02;;;;;;;4.63;3.13;;;25.10;29.70;;;;;;6301497;28;20605;-67
2022/05/03 12:10:19;;;;;;;2.93;2.60;;;25.20;29.70;;;;;;6300792;28;20245;-64
2022/05/03 12:13:30;;;;;;;2.17;1.97;;;25.20;30.40;;;;;;6301679;28;20231;-68
2022/05/03 12:16:36;;;;;;;3.10;2.77;;;25.00;28.20;;;;;;6300841;28;20648;-64
2022/05/03 12:19:39;;;;;;;3.73;2.50;;;25.10;29.10;;;;;;6300890;28;20549;-63
2022/05/03 12:22:43;;;;;;;3.47;3.00;;;25.20;29.00;;;;;;6301097;28;20233;-64
2022/05/03 12:25:48;;;;;;;3.07;2.77;;;25.20;30.00;;;;;;6300825;28;20675;-64
2022/05/03 12:28:55;;;;;;;6.13;3.23;;;25.10;31.20;;;;;;6300563;28;20565;-64
2022/05/03 12:31:58;;;;;;;3.53;2.70;;;25.00;31.60;;;;;;6300721;28;20226;-64
2022/05/03 12:35:02;;;;;;;4.17;3.40;;;24.80;31.60;;;;;;6298721;28;20535;-63
2022/05/03 12:38:10;;;;;;;3.57;2.13;;;24.90;31.40;;;;;;6301193;28;20245;-63
2022/05/03 12:41:23;;;;;;;2.77;2.57;;;24.90;29.90;;;;;;6300542;28;20565;-63
2022/05/03 12:44:28;;;;;;;2.90;2.70;;;25.10;29.10;;;;;;6298561;28;20697;-63
2022/05/03 12:47:32;;;;;;;2.63;2.43;;;25.10;29.10;;;;;;6302019;28;20227;-62
2022/05/03 12:50:36;;;;;;;3.10;2.90;;;25.00;30.30;;;;;;6302327;28;20223;-63
2022/05/03 12:53:47;;;;;;;4.00;2.73;;;25.10;30.10;;;;;;6300841;28;20556;-63
2022/05/03 13:00:14;;;;;;;2.57;2.37;;;25.10;30.40;;;;;;6328850;28;20770;-63
2022/05/03 13:03:18;;;;;;;2.67;2.20;;;25.20;30.40;;;;;;6331029;28;20231;-63
2022/05/03 13:06:22;;;;;;;3.13;2.93;;;24.70;30.40;;;;;;6326138;28;20291;-62
2022/05/03 13:09:25;;;;;;;2.47;2.07;;;23.90;31.90;;;;;;6327159;28;20235;-63
2022/05/03 13:12:30;;;;;;;2.90;2.70;;;24.00;31.40;;;;;;6326913;28;20655;-63
2022/05/03 13:15:35;;;;;;;2.90;2.47;;;24.20;31.10;;;;;;6322785;28;20533;-62
2022/05/03 13:18:38;;;;;;;2.97;2.77;;;24.30;31.80;;;;;;6327696;28;20222;-63
2022/05/03 13:22:02;;;;;;;2.70;2.50;;;24.40;32.00;;;;;;6326955;28;20222;-62
2022/05/03 13:25:06;;;;;;;3.30;3.00;;;24.40;31.40;;;;;;6327257;28;20237;-62
2022/05/03 13:28:09;;;;;;;3.90;3.23;;;24.40;32.20;;;;;;6327218;28;20300;-63
2022/05/03 13:31:14;;;;;;;3.57;3.10;;;24.40;32.40;;;;;;6326211;28;20222;-63
2022/05/03 13:34:17;;;;;;;3.23;2.93;;;24.30;32.50;;;;;;6327234;28;20722;-63
2022/05/03 13:40:41;;;;;;;3.47;3.17;;;24.10;32.20;;;;;;6326427;28;20245;-63
2022/05/03 13:43:45;;;;;;;3.07;2.73;;;23.80;32.40;;;;;;6326125;28;20678;-63
2022/05/03 13:46:49;;;;;;;5.47;2.60;;;23.80;32.90;;;;;;6326086;28;20226;-63
2022/05/03 13:49:53;;;;;;;4.90;2.80;;;23.80;33.10;;;;;;6325913;28;20233;-63
2022/05/03 13:52:57;;;;;;;3.23;2.93;;;23.90;31.80;;;;;;6325828;28;20638;-63
2022/05/03 13:56:00;;;;;;;2.43;2.20;;;24.00;33.10;;;;;;6325987;28;20227;-63
2022/05/03 13:59:03;;;;;;;3.03;2.60;;;23.60;33.20;;;;;;6325914;28;20253;-63
2022/05/03 14:02:11;;;;;;;3.27;3.07;;;23.40;33.50;;;;;;6325766;28;20245;-64
2022/05/03 14:05:14;;;;;;;3.20;2.90;;;23.60;33.90;;;;;;6327734;28;20258;-63
2022/05/03 14:08:18;;;;;;;3.47;3.17;;;23.70;33.40;;;;;;6325920;28;20237;-63
2022/05/03 14:11:21;;;;;;;4.57;2.50;;;23.70;33.40;;;;;;6325960;28;20554;-63
2022/05/03 14:14:24;;;;;;;4.10;3.10;;;23.80;33.30;;;;;;6324759;28;20668;-63
2022/05/03 14:17:29;;;;;;;3.20;2.47;;;23.50;33.50;;;;;;6324560;28;20589;-71
2022/05/03 14:20:32;;;;;;;3.23;2.97;;;23.50;33.30;;;;;;6324865;28;20315;-64
2022/05/03 14:23:35;;;;;;;3.37;3.07;;;23.60;35.80;;;;;;6324983;28;20226;-63
2022/05/03 14:26:38;;;;;;;3.50;3.20;;;23.40;39.20;;;;;;6325154;28;20226;-63
2022/05/03 14:29:41;;;;;;;3.20;2.90;;;23.30;40.20;;;;;;6324832;28;20232;-63
2022/05/03 14:32:47;;;;;;;3.30;3.00;;;23.10;40.20;;;;;;6324896;28;20230;-63
2022/05/03 14:35:51;;;;;;;3.20;2.70;;;23.10;40.40;;;;;;6324944;28;20229;-63
2022/05/03 14:38:54;;;;;;;2.90;2.70;;;23.20;40.00;;;;;;6324817;28;20230;-63
2022/05/03 14:42:17;;;;;;;3.57;3.27;;;23.30;40.10;;;;;;6326818;28;20223;-63
2022/05/03 14:45:21;;;;;;;3.60;3.30;;;23.40;39.40;;;;;;6331948;28;20209;-63
2022/05/03 14:48:26;;;;;;;3.80;3.50;;;23.10;39.10;;;;;;6302538;28;20203;-63
2022/05/03 14:51:29;;;;;;;2.97;2.77;;;22.80;39.60;;;;;;6278115;28;20227;-63
2022/05/03 14:54:33;;;;;;;3.63;3.33;;;22.60;39.90;;;;;;6320228;28;20226;-64
2022/05/03 15:04:22;;;;;;;5.33;3.33;;;22.20;41.20;;;;;;6307773;28;20680;-63
2022/05/03 15:07:25;;;;;;;3.33;3.00;;;22.10;41.10;;;;;;6324515;28;20226;-63
2022/05/03 15:10:29;;;;;;;2.80;2.60;;;22.10;41.80;;;;;;6324886;28;20230;-63
2022/05/03 15:13:32;;;;;;;3.67;3.30;;;22.10;42.00;;;;;;6313310;28;20230;-63
2022/05/03 15:16:36;;;;;;;3.20;2.90;;;22.10;40.80;;;;;;6299370;28;20226;-63
2022/05/03 15:19:41;;;;;;;6.13;3.30;;;22.20;40.70;;;;;;6299107;28;20239;-64
2022/05/03 15:26:05;;;;;;;3.20;3.00;;;22.20;40.80;;;;;;6294515;28;20239;-64
2022/05/03 15:29:13;;;;;;;3.50;3.20;;;22.00;40.90;;;;;;6300587;28;20679;-63
2022/05/03 15:32:28;;;;;;;3.20;2.90;;;21.90;40.70;;;;;;6304589;28;20231;-67
2022/05/03 15:35:33;;;;;;;3.03;2.77;;;22.00;41.10;;;;;;6304067;28;20227;-64
2022/05/03 15:38:36;;;;;;;3.90;3.20;;;22.20;41.30;;;;;;6303958;28;20241;-64
2022/05/03 15:41:39;;;;;;;3.00;2.70;;;22.30;40.80;;;;;;6303608;28;20230;-66
2022/05/03 15:44:42;;;;;;;2.97;2.77;;;22.50;40.70;;;;;;6304163;28;20353;-67
2022/05/03 15:47:47;;;;;;;3.43;3.13;;;22.60;40.40;;;;;;6303538;28;20586;-67
2022/05/03 15:50:52;;;;;;;3.87;3.47;;;22.70;40.60;;;;;;6305633;28;20227;-66
2022/05/03 15:53:55;;;;;;;4.10;3.10;;;22.80;41.00;;;;;;6322560;28;20241;-66
2022/05/03 15:56:59;;;;;;;5.13;3.10;;;22.90;40.30;;;;;;6330065;28;20287;-66
2022/05/03 16:00:02;;;;;;;3.80;3.23;;;22.90;40.10;;;;;;6328587;28;20532;-66
2022/05/03 16:03:06;;;;;;;4.43;3.03;;;22.80;40.50;;;;;;6328479;28;20230;-65
2022/05/03 16:06:11;;;;;;;5.10;3.40;;;22.80;40.70;;;;;;6328224;27;20217;-64
2022/05/03 16:09:15;;;;;;;2.77;2.57;;;22.70;40.70;;;;;;6328348;28;20658;-65
2022/05/03 16:12:18;;;;;;;3.63;2.87;;;22.80;40.40;;;;;;6328678;28;20217;-66
2022/05/03 16:15:23;;;;;;;3.37;2.70;;;22.80;40.50;;;;;;6329278;28;20207;-66
2022/05/03 16:18:28;;;;;;;2.90;2.70;;;22.50;40.90;;;;;;6328890;28;20315;-66
2022/05/03 16:21:33;;;;;;;2.70;2.50;;;22.50;40.50;;;;;;6329053;28;20233;-65
2022/05/03 16:24:37;;;;;;;3.40;3.10;;;22.40;40.50;;;;;;6322089;28;20230;-67
2022/05/03 16:27:40;;;;;;;3.63;3.33;;;22.40;40.70;;;;;;6324400;28;20223;-65
2022/05/03 16:30:48;;;;;;;3.10;2.80;;;22.40;40.70;;;;;;6329163;28;20253;-65
2022/05/03 16:33:53;;;;;;;3.40;3.10;;;22.40;41.00;;;;;;6330744;28;20589;-65
2022/05/03 16:43:46;;;;;;;2.70;2.50;;;21.80;42.10;;;;;;6327883;28;20245;-64
2022/05/03 16:46:49;;;;;;;3.03;2.73;;;21.70;42.40;;;;;;6328188;28;20237;-63
2022/05/03 16:49:54;;;;;;;3.00;2.80;;;21.60;43.20;;;;;;6328108;28;20313;-64
2022/05/03 16:52:59;;;;;;;3.83;2.97;;;21.60;43.00;;;;;;6328078;28;20551;-63
2022/05/03 16:56:02;;;;;;;3.27;2.97;;;21.50;42.90;;;;;;6328134;28;20249;-63
2022/05/03 16:59:05;;;;;;;6.27;3.03;;;21.40;42.90;;;;;;6330343;28;20233;-63
2022/05/03 17:02:09;;;;;;;2.30;2.20;;;21.30;43.20;;;;;;6339815;28;20313;-64
2022/05/03 17:05:13;;;;;;;4.67;2.63;;;21.30;43.10;;;;;;6346700;28;20234;-63
2022/05/03 17:08:17;;;;;;;3.30;3.00;;;21.10;43.20;;;;;;6345022;28;20241;-64
2022/05/03 17:11:20;;;;;;;3.40;3.20;;;21.10;43.20;;;;;;6331790;28;20234;-63